Time;durP1;ratioP1;P1;durP2;ratioP2;P2;SDS_P1;SDS_P2;PMS_P1;PMS_P2;Temp;Humidity;BMP_temperature;BMP_pressure;BME280_temperature;BME280_humidity;BME280_pressure;Samples;Min_cycle;Max_cycle;Signal;HPM_P1;HPM_P2
2021/03/24 00:01:17;;;;;;;2.95;1.80;;;;;;;-1.46;71.90;99093.99;1783566;80;21115;-60
2021/03/24 00:03:45;;;;;;;3.80;1.87;;;;;;;-1.45;71.78;99088.05;1783727;80;21464;-60
2021/03/24 00:06:14;;;;;;;3.37;1.85;;;;;;;-1.44;71.89;99087.62;1783655;80;21474;-60
2021/03/24 00:08:42;;;;;;;5.17;1.70;;;;;;;-1.44;71.84;99096.13;1782267;80;21063;-60
2021/03/24 00:11:11;;;;;;;4.10;2.40;;;;;;;-1.42;71.98;99090.59;1779029;80;22141;-60
2021/03/24 00:13:39;;;;;;;5.50;2.58;;;;;;;-1.40;72.20;99088.87;1779113;80;21186;-60
2021/03/24 00:16:08;;;;;;;2.35;1.87;;;;;;;-1.40;72.18;99082.49;1779088;80;21047;-60
2021/03/24 00:18:37;;;;;;;3.35;2.12;;;;;;;-1.37;72.15;99094.83;1755579;80;21070;-60
2021/03/24 00:21:06;;;;;;;3.92;2.30;;;;;;;-1.35;72.17;99099.50;1779190;80;21520;-62
2021/03/24 00:23:34;;;;;;;4.92;2.30;;;;;;;-1.33;72.32;99095.26;1779059;80;21421;-60
2021/03/24 00:26:02;;;;;;;4.20;2.40;;;;;;;-1.32;72.38;99103.34;1779032;80;21099;-60
2021/03/24 00:28:30;;;;;;;4.78;2.95;;;;;;;-1.31;72.79;99105.89;1779031;80;21134;-60
2021/03/24 00:30:58;;;;;;;5.50;3.17;;;;;;;-1.29;72.73;99102.92;1779063;80;21138;-60
2021/03/24 00:33:26;;;;;;;4.25;2.80;;;;;;;-1.28;73.09;99102.07;1779049;80;21048;-60
2021/03/24 00:35:56;;;;;;;6.05;3.10;;;;;;;-1.25;73.27;99106.33;1779160;80;21205;-60
2021/03/24 00:38:24;;;;;;;4.95;2.80;;;;;;;-1.24;73.45;99096.55;1778990;80;21068;-60
2021/03/24 00:40:56;;;;;;;3.62;2.90;;;;;;;-1.22;73.28;99112.28;1779059;80;21555;-60
2021/03/24 00:43:25;;;;;;;3.55;2.35;;;;;;;-1.23;73.38;99108.03;1779118;80;21080;-60
2021/03/24 00:45:53;;;;;;;3.33;2.77;;;;;;;-1.22;73.05;99110.16;1779056;80;21511;-60
2021/03/24 00:48:27;;;;;;;4.08;2.60;;;;;;;-1.19;72.91;99116.51;1779000;80;21210;-59
2021/03/24 00:50:57;;;;;;;4.30;2.50;;;;;;;-1.18;72.68;99124.17;1779025;80;21075;-61
2021/03/24 00:53:25;;;;;;;3.52;2.20;;;;;;;-1.17;72.21;99123.74;1779053;80;21091;-61
2021/03/24 00:55:53;;;;;;;4.33;3.00;;;;;;;-1.16;71.72;99112.27;1779038;80;21115;-61
2021/03/24 00:58:22;;;;;;;4.90;2.37;;;;;;;-1.16;72.10;99113.96;1779037;80;21155;-61
2021/03/24 01:01:02;;;;;;;3.35;2.22;;;;;;;-1.17;71.73;99110.98;1779133;80;22308;-61
2021/03/24 01:03:30;;;;;;;2.33;1.75;;;;;;;-1.17;71.28;99113.53;1778999;80;21118;-61
2021/03/24 01:05:58;;;;;;;3.30;2.05;;;;;;;-1.20;70.58;99108.46;1779031;80;21080;-61
2021/03/24 01:08:44;;;;;;;2.92;1.50;;;;;;;-1.20;70.40;99113.11;1775412;80;21321;-61
2021/03/24 01:11:12;;;;;;;2.25;1.72;;;;;;;-1.22;70.32;99115.27;1752503;81;21058;-61
2021/03/24 01:13:41;;;;;;;2.02;1.50;;;;;;;-1.23;70.45;99116.96;1752506;81;21126;-61
2021/03/24 01:16:11;;;;;;;2.35;1.50;;;;;;;-1.25;70.09;99133.12;1752384;81;21142;-61
2021/03/24 01:18:39;;;;;;;2.40;1.47;;;;;;;-1.27;70.32;99125.88;1752459;81;21182;-61
2021/03/24 01:21:06;;;;;;;2.58;1.30;;;;;;;-1.27;70.74;99125.88;1752395;81;21503;-61
2021/03/24 01:23:35;;;;;;;1.95;1.22;;;;;;;-1.28;69.68;99138.22;1752497;81;21209;-61
2021/03/24 01:26:03;;;;;;;1.80;1.22;;;;;;;-1.27;69.72;99128.02;1752481;81;21551;-61
2021/03/24 01:28:30;;;;;;;2.22;1.15;;;;;;;-1.28;69.38;99133.11;1752438;81;21547;-61
2021/03/24 01:31:00;;;;;;;2.22;1.35;;;;;;;-1.27;68.61;99169.26;1752439;81;21048;-61
2021/03/24 01:33:29;;;;;;;1.90;1.27;;;;;;;-1.26;68.96;99135.23;1727781;81;21156;-61
2021/03/24 01:35:58;;;;;;;3.05;1.30;;;;;;;-1.25;68.57;99138.22;1752464;80;21051;-60
2021/03/24 01:38:26;;;;;;;1.20;0.90;;;;;;;-1.26;68.59;99136.52;1752429;81;21277;-60
2021/03/24 01:40:57;;;;;;;1.17;1.02;;;;;;;-1.26;68.45;99142.47;1752475;81;21072;-60
2021/03/24 01:43:36;;;;;;;2.40;1.20;;;;;;;-1.28;68.53;99126.73;1752523;81;21074;-60
2021/03/24 01:46:34;;;;;;;1.30;0.98;;;;;;;-1.33;68.52;99124.17;1752457;81;21059;-61
2021/03/24 01:49:10;;;;;;;1.85;1.17;;;;;;;-1.42;68.64;99127.59;1752546;81;21523;-60
2021/03/24 01:52:05;;;;;;;4.12;1.45;;;;;;;-1.54;68.22;99143.27;1752557;81;22273;-60
2021/03/24 01:58:36;;;;;;;2.58;1.47;;;;;;;-1.76;68.73;99146.20;1752323;81;21055;-60
2021/03/24 02:01:14;;;;;;;1.87;1.02;;;;;;;-1.87;68.86;99155.11;1752387;81;21126;-60
2021/03/24 02:03:43;;;;;;;2.30;1.60;;;;;;;-1.92;68.84;99173.77;1752466;80;21131;-60
2021/03/24 02:06:26;;;;;;;2.30;1.35;;;;;;;-1.97;69.31;99155.91;1752417;81;21389;-60
2021/03/24 02:09:03;;;;;;;;;;;;;;;-2.02;69.26;99161.44;1754693;80;21090;-60
2021/03/24 02:11:41;;;;;;;2.70;1.10;;;;;;;-2.07;69.61;99154.19;1752465;81;20239;-60
2021/03/24 02:14:20;;;;;;;3.05;1.65;;;;;;;-2.13;69.92;99157.55;1752447;81;21145;-60
2021/03/24 02:16:50;;;;;;;1.60;1.25;;;;;;;-2.16;70.07;99159.23;1752507;81;21622;-60
2021/03/24 02:19:39;;;;;;;2.70;1.42;;;;;;;-2.20;69.89;99174.92;1752426;81;21439;-60
2021/03/24 02:22:08;;;;;;;2.42;1.60;;;;;;;-2.24;69.82;99152.00;1752383;81;21484;-60
2021/03/24 02:25:01;;;;;;;3.55;1.80;;;;;;;-2.26;70.13;99157.08;1752422;81;21063;-60
2021/03/24 02:27:35;;;;;;;2.40;1.60;;;;;;;-2.30;70.28;99159.59;1752507;81;21154;-60
2021/03/24 02:30:22;;;;;;;1.65;1.20;;;;;;;-2.35;70.57;99166.36;1752385;81;21076;-60
2021/03/24 02:32:57;;;;;;;2.33;1.15;;;;;;;-2.41;70.58;99159.98;1752414;81;21206;-60
2021/03/24 02:35:34;;;;;;;1.75;1.10;;;;;;;-2.44;70.65;99169.72;1752359;81;21531;-61
2021/03/24 02:38:04;;;;;;;1.42;1.12;;;;;;;-2.47;70.41;99166.73;1752491;81;21110;-60
2021/03/24 02:40:34;;;;;;;4.77;1.13;;;;;;;-2.50;70.62;99170.95;1752645;81;21633;-60
2021/03/24 02:43:03;;;;;;;1.40;1.00;;;;;;;-2.54;70.84;99170.08;1752460;81;21361;-60
2021/03/24 02:45:35;;;;;;;1.50;1.15;;;;;;;-2.56;71.02;99170.91;1752518;81;22202;-60
2021/03/24 02:48:07;;;;;;;1.55;1.00;;;;;;;-2.61;71.26;99184.91;1752347;81;21123;-60
2021/03/24 02:50:37;;;;;;;2.52;1.00;;;;;;;-2.62;71.33;99183.62;1752491;81;21058;-60
2021/03/24 02:53:05;;;;;;;1.95;1.00;;;;;;;-2.64;71.54;99173.84;1752390;81;21107;-60
2021/03/24 02:55:34;;;;;;;2.00;1.15;;;;;;;-2.68;71.41;99178.48;1752407;81;21163;-60
2021/03/24 02:58:02;;;;;;;2.45;1.22;;;;;;;-2.68;71.46;99188.66;1752463;81;21146;-60
2021/03/24 03:00:30;;;;;;;1.80;1.40;;;;;;;-2.68;71.33;99196.30;1752334;81;21571;-60
2021/03/24 03:03:02;;;;;;;2.42;1.37;;;;;;;-2.67;71.49;99177.64;1752454;81;21086;-60
2021/03/24 03:05:33;;;;;;;2.95;1.20;;;;;;;-2.70;71.47;99186.09;1752352;81;21116;-60
2021/03/24 03:08:19;;;;;;;1.15;1.00;;;;;;;-2.69;71.58;99175.50;1752399;81;21130;-60
2021/03/24 03:11:26;;;;;;;1.98;1.07;;;;;;;-2.68;71.63;99179.75;1774920;80;21455;-61
2021/03/24 03:14:03;;;;;;;2.85;1.60;;;;;;;-2.66;71.54;99178.06;1783575;80;21139;-60
2021/03/24 03:16:49;;;;;;;2.42;1.37;;;;;;;-2.64;71.50;99177.66;1783684;80;21107;-60
2021/03/24 03:19:31;;;;;;;1.90;1.10;;;;;;;-2.62;71.62;99184.47;1783682;80;21463;-60
2021/03/24 03:22:25;;;;;;;1.82;1.10;;;;;;;-2.59;71.47;99179.79;1783664;80;21055;-61
2021/03/24 03:25:03;;;;;;;1.55;1.00;;;;;;;-2.55;71.54;99181.52;1710070;84;21210;-60
2021/03/24 03:27:31;;;;;;;2.30;1.32;;;;;;;-2.54;71.43;99185.77;1710063;84;21160;-60
2021/03/24 03:30:00;;;;;;;3.92;1.27;;;;;;;-2.51;71.37;99187.92;1710147;84;21149;-60
2021/03/24 03:32:28;;;;;;;2.10;1.42;;;;;;;-2.50;71.35;99191.32;1710171;84;21181;-60
2021/03/24 03:35:00;;;;;;;1.47;1.05;;;;;;;-2.50;71.29;99192.17;1673877;85;21109;-60
2021/03/24 03:37:28;;;;;;;2.05;1.10;;;;;;;-2.48;71.29;99190.49;1678430;85;21510;-60
2021/03/24 03:39:57;;;;;;;1.40;1.10;;;;;;;-2.48;71.21;99204.50;1678422;85;21170;-60
2021/03/24 03:42:25;;;;;;;1.50;1.15;;;;;;;-2.47;71.16;99194.74;1690598;84;21220;-60
2021/03/24 03:44:56;;;;;;;2.22;1.32;;;;;;;-2.45;70.94;99188.39;1660287;85;21074;-60
2021/03/24 03:47:23;;;;;;;2.30;1.30;;;;;;;-2.45;70.66;99198.16;1660835;85;21074;-60
2021/03/24 03:49:51;;;;;;;2.50;1.32;;;;;;;-2.43;70.82;99195.63;1677829;85;21207;-60
2021/03/24 03:52:47;;;;;;;2.22;1.52;;;;;;;-2.40;70.79;99196.06;1677750;85;21114;-60
2021/03/24 03:55:29;;;;;;;2.22;1.62;;;;;;;-2.39;70.90;99206.66;1677828;85;21059;-61
2021/03/24 03:58:02;;;;;;;2.15;1.50;;;;;;;-2.36;70.68;99193.94;1677945;85;21130;-60
2021/03/24 04:00:34;;;;;;;2.33;1.50;;;;;;;-2.33;70.81;99209.24;1677974;85;21575;-60
2021/03/24 04:03:12;;;;;;;3.33;1.62;;;;;;;-2.32;70.50;99203.31;1673482;85;21222;-60
2021/03/24 04:05:55;;;;;;;4.03;1.40;;;;;;;-2.28;70.74;99203.34;1677794;85;21107;-61
2021/03/24 04:08:35;;;;;;;6.15;1.60;;;;;;;-2.21;70.81;99205.09;1888617;76;22794;-60
2021/03/24 04:11:06;;;;;;;1.90;1.30;;;;;;;-2.23;70.32;99216.97;1775595;80;21567;-59
2021/03/24 04:13:43;;;;;;;1.85;1.52;;;;;;;-2.21;70.31;99214.00;1850140;77;22256;-60
2021/03/24 04:16:10;;;;;;;3.25;1.47;;;;;;;-2.20;70.46;99219.95;1849369;77;21075;-60
2021/03/24 04:18:54;;;;;;;3.62;1.62;;;;;;;-2.19;70.29;99222.91;1849881;77;21071;-60
2021/03/24 04:21:22;;;;;;;3.40;1.77;;;;;;;-2.17;70.54;99227.16;1819954;77;20925;-59
2021/03/24 04:23:55;;;;;;;2.17;1.57;;;;;;;-2.15;69.85;99259.03;1850010;77;21496;-59
2021/03/24 04:26:27;;;;;;;5.42;1.90;;;;;;;-2.13;70.19;99222.52;1847337;77;21354;-60
2021/03/24 04:28:58;;;;;;;3.92;1.90;;;;;;;-2.09;69.98;99225.95;1747829;80;21032;-60
2021/03/24 04:31:27;;;;;;;3.37;1.80;;;;;;;-2.06;70.15;99228.52;1849932;77;21109;-60
2021/03/24 04:33:55;;;;;;;3.17;2.15;;;;;;;-2.04;69.85;99224.28;1820189;77;21532;-60
2021/03/24 04:36:35;;;;;;;2.47;1.65;;;;;;;-2.01;69.69;99229.40;1849953;77;21122;-60
2021/03/24 04:39:14;;;;;;;3.77;1.60;;;;;;;-1.98;69.66;99221.73;1823893;77;21338;-60
2021/03/24 04:41:49;;;;;;;3.70;1.92;;;;;;;-1.90;69.49;99226.88;1893197;75;22057;-60
2021/03/24 04:44:25;;;;;;;4.58;2.00;;;;;;;-1.91;69.42;99228.58;1881693;76;21351;-60
2021/03/24 04:46:58;;;;;;;3.17;1.80;;;;;;;-1.87;69.32;99235.83;1881705;76;21413;-60
2021/03/24 04:49:26;;;;;;;2.27;1.65;;;;;;;-1.81;69.14;99238.41;1807212;79;21044;-61
2021/03/24 04:51:54;;;;;;;6.45;2.10;;;;;;;-1.74;69.10;99228.22;1805423;79;21126;-61
2021/03/24 04:54:34;;;;;;;3.42;1.90;;;;;;;-1.65;69.02;99228.69;1740603;79;21116;-60
2021/03/24 04:57:07;;;;;;;2.27;1.77;;;;;;;-1.55;68.46;99243.59;1823026;78;21159;-60
2021/03/24 04:59:39;;;;;;;2.12;1.85;;;;;;;-1.48;68.34;99239.80;1778187;79;21358;-59
2021/03/24 05:02:17;;;;;;;1.97;1.50;;;;;;;-1.41;68.27;99245.36;1806805;78;21107;-60
2021/03/24 05:04:59;;;;;;;3.67;1.70;;;;;;;-1.33;67.87;99232.59;1822880;78;21338;-60
2021/03/24 05:07:47;;;;;;;3.67;1.98;;;;;;;-1.23;67.79;99236.89;1807200;79;21071;-61
2021/03/24 05:10:21;;;;;;;4.05;2.33;;;;;;;-1.14;67.43;99239.86;1807134;79;21546;-59
2021/03/24 05:13:09;;;;;;;3.27;2.05;;;;;;;-1.07;67.15;99229.67;1822886;78;21353;-60
2021/03/24 05:15:42;;;;;;;3.90;1.90;;;;;;;-1.06;66.73;99232.66;1822791;78;20933;-61
2021/03/24 05:18:14;;;;;;;3.58;2.10;;;;;;;-1.03;66.86;99244.58;1807138;79;21048;-61
2021/03/24 05:23:58;;;;;;;4.33;2.00;;;;;;;-0.95;66.27;99236.91;1712543;83;21092;-61
2021/03/24 05:26:33;;;;;;;2.20;1.65;;;;;;;-0.89;66.30;99250.54;1707316;84;21168;-61
2021/03/24 05:29:03;;;;;;;3.80;1.77;;;;;;;-0.88;66.11;99248.41;1707186;84;21187;-61
2021/03/24 05:31:39;;;;;;;4.37;2.20;;;;;;;-0.85;66.03;99241.19;1707223;84;21245;-61
2021/03/24 05:34:13;;;;;;;3.60;2.17;;;;;;;-0.83;66.25;99240.34;1706815;84;21515;-61
2021/03/24 05:36:47;;;;;;;2.90;1.85;;;;;;;-0.82;65.78;99243.75;1706744;84;21162;-61
2021/03/24 05:39:30;;;;;;;4.10;1.85;;;;;;;-0.86;65.99;99256.08;1676697;84;21163;-60
2021/03/24 05:42:35;;;;;;;2.42;1.98;;;;;;;-0.88;66.10;99255.22;1706613;82;21191;-61
2021/03/24 05:45:43;;;;;;;3.50;1.98;;;;;;;-0.87;66.38;99260.33;1706064;84;21591;-61
2021/03/24 05:48:46;;;;;;;6.97;2.47;;;;;;;-0.86;66.24;99281.19;1706446;83;21166;-61
2021/03/24 05:51:45;;;;;;;4.05;2.05;;;;;;;-0.88;66.01;99266.71;1706379;84;21142;-61
2021/03/24 05:54:44;;;;;;;3.45;2.10;;;;;;;-0.87;66.46;99274.38;1705625;84;21098;-61
2021/03/24 05:57:50;;;;;;;5.28;2.12;;;;;;;-0.83;66.24;99274.81;1705016;84;21241;-62
2021/03/24 06:00:35;;;;;;;7.20;2.77;;;;;;;-0.86;65.77;99276.08;1705724;83;21072;-61
2021/03/24 06:03:36;;;;;;;3.83;2.60;;;;;;;-0.86;66.88;99278.63;1705753;84;21099;-60
2021/03/24 06:06:50;;;;;;;5.20;2.30;;;;;;;-0.82;66.08;99280.77;1642803;84;21099;-61
2021/03/24 06:09:51;;;;;;;3.02;2.25;;;;;;;-0.80;66.13;99299.50;1705815;84;22383;-61
2021/03/24 06:12:51;;;;;;;2.80;1.90;;;;;;;-0.76;66.31;99287.14;1705947;84;21528;-61
2021/03/24 06:15:51;;;;;;;2.72;1.98;;;;;;;-0.77;65.55;99287.56;1703548;82;21176;-62
2021/03/24 06:18:42;;;;;;;5.22;2.65;;;;;;;-0.74;66.37;99308.42;1703051;83;21226;-60
2021/03/24 06:22:00;;;;;;;7.10;2.62;;;;;;;-0.72;65.94;99289.70;1703183;84;21241;-65
2021/03/24 06:24:49;;;;;;;4.05;2.80;;;;;;;-0.72;66.28;99317.80;1703298;83;21226;-61
2021/03/24 06:27:44;;;;;;;5.60;3.10;;;;;;;-0.74;66.37;99303.31;1681134;84;21205;-63
2021/03/24 06:30:53;;;;;;;6.50;3.00;;;;;;;-0.73;66.81;99310.13;1702243;84;21205;-63
2021/03/24 06:33:51;;;;;;;3.95;2.62;;;;;;;-0.70;66.47;99296.09;1704354;84;21158;-62
2021/03/24 06:37:06;;;;;;;3.90;2.58;;;;;;;-0.62;66.66;99299.94;1705876;84;21154;-61
2021/03/24 06:39:51;;;;;;;8.18;2.50;;;;;;;-0.54;65.99;99307.16;1705887;84;21292;-61
2021/03/24 06:42:37;;;;;;;4.55;3.25;;;;;;;-0.56;65.96;99301.20;1705688;82;21186;-60
2021/03/24 06:45:47;;;;;;;4.80;2.80;;;;;;;-0.51;66.25;99313.55;1676439;84;21099;-61
2021/03/24 06:48:32;;;;;;;6.05;2.70;;;;;;;-0.40;65.74;99328.02;1705818;84;21106;-61
2021/03/24 06:51:51;;;;;;;5.40;3.30;;;;;;;-0.32;65.34;99320.80;1704558;84;21201;-60
2021/03/24 06:54:42;;;;;;;4.50;2.75;;;;;;;-0.23;65.70;99319.52;1705196;83;22190;-61
2021/03/24 06:57:46;;;;;;;4.62;2.40;;;;;;;-0.16;65.09;99336.54;1704805;82;21198;-63
2021/03/24 07:00:45;;;;;;;5.33;3.33;;;;;;;-0.13;64.71;99330.16;1705906;84;21167;-61
2021/03/24 07:03:48;;;;;;;5.42;2.65;;;;;;;-0.06;64.86;99335.70;1705780;84;21087;-61
2021/03/24 07:06:55;;;;;;;4.92;2.80;;;;;;;0.04;65.23;99342.91;1705878;84;21099;-60
2021/03/24 07:09:57;;;;;;;9.28;2.98;;;;;;;0.10;64.74;99342.91;1705785;84;21567;-62
2021/03/24 07:12:34;;;;;;;8.03;2.50;;;;;;;0.13;63.95;99350.58;1705853;84;21127;-61
2021/03/24 07:15:28;;;;;;;4.55;3.20;;;;;;;0.05;63.86;99338.22;1705678;84;21158;-61
2021/03/24 07:18:26;;;;;;;5.12;3.00;;;;;;;0.09;64.61;99327.99;1705814;84;21127;-60
2021/03/24 07:21:30;;;;;;;5.70;3.30;;;;;;;0.18;64.78;99347.59;1705794;83;21488;-61
2021/03/24 07:24:44;;;;;;;4.78;3.62;;;;;;;0.29;63.72;99350.55;1705662;83;21383;-62
2021/03/24 07:27:44;;;;;;;4.80;3.25;;;;;;;0.29;63.84;99359.93;1678869;84;21182;-60
2021/03/24 07:30:39;;;;;;;6.40;3.40;;;;;;;0.24;64.21;99343.73;1705647;84;21154;-60
2021/03/24 07:33:33;;;;;;;9.00;3.33;;;;;;;0.30;63.75;99334.77;1702487;84;21190;-61
2021/03/24 07:36:35;;;;;;;6.60;3.47;;;;;;;0.36;63.81;99347.98;1705639;84;21154;-61
2021/03/24 07:39:20;;;;;;;;;;;;;;;0.43;63.49;99338.14;1708268;83;21209;-60
2021/03/24 07:42:22;;;;;;;6.08;3.08;;;;;;;0.52;63.54;99354.76;1704457;82;20246;-61
2021/03/24 07:45:07;;;;;;;11.38;3.40;;;;;;;0.56;64.15;99356.45;1705847;84;21183;-61
2021/03/24 07:48:10;;;;;;;6.50;3.27;;;;;;;0.62;63.95;99368.78;1705787;84;21141;-62
2021/03/24 07:50:58;;;;;;;7.90;4.00;;;;;;;0.75;63.68;99341.88;1705832;84;21107;-60
2021/03/24 07:54:02;;;;;;;5.08;3.58;;;;;;;0.89;63.36;99350.34;1705836;84;21330;-61
2021/03/24 07:56:47;;;;;;;7.37;4.47;;;;;;;0.90;62.57;99343.09;1705716;84;21240;-61
2021/03/24 07:59:32;;;;;;;8.98;4.67;;;;;;;0.87;62.44;99368.27;1705764;84;21115;-60
2021/03/24 08:02:27;;;;;;;7.70;4.90;;;;;;;0.83;62.63;99375.97;1705411;84;21590;-61
2021/03/24 08:05:41;;;;;;;7.80;4.28;;;;;;;0.71;62.64;99382.42;1705880;83;26606;-62
2021/03/24 08:08:48;;;;;;;7.22;4.80;;;;;;;0.73;63.77;99343.59;1647182;84;21221;-62
2021/03/24 08:11:41;;;;;;;5.17;3.70;;;;;;;0.80;63.21;99379.84;1705508;83;21098;-63
2021/03/24 08:14:34;;;;;;;4.85;3.75;;;;;;;0.85;63.48;99364.86;1671991;84;21626;-63
2021/03/24 08:17:21;;;;;;;5.67;3.90;;;;;;;0.86;63.63;99383.64;1705228;84;21238;-62
2021/03/24 08:20:34;;;;;;;7.00;4.47;;;;;;;0.89;63.31;99365.71;1881260;75;22517;-64
2021/03/24 08:23:40;;;;;;;8.90;4.80;;;;;;;0.84;63.98;99368.28;1841826;77;21526;-62
2021/03/24 08:26:34;;;;;;;6.35;4.40;;;;;;;0.88;63.84;99399.85;1819187;77;21368;-62
2021/03/24 08:29:55;;;;;;;10.00;4.55;;;;;;;0.93;64.18;99390.02;1811616;77;21076;-62
2021/03/24 08:33:09;;;;;;;6.37;3.70;;;;;;;0.95;64.27;99401.55;1834738;77;21013;-61
2021/03/24 08:36:04;;;;;;;6.95;4.90;;;;;;;0.91;63.96;99409.66;1846750;77;21666;-62
2021/03/24 08:38:53;;;;;;;7.00;4.80;;;;;;;0.86;64.36;99388.33;1851350;77;21142;-62
2021/03/24 08:41:59;;;;;;;6.35;4.70;;;;;;;0.83;65.21;99390.90;1839881;77;22103;-60
2021/03/24 08:45:12;;;;;;;8.00;5.45;;;;;;;0.90;65.53;99379.79;1749909;81;21604;-61
2021/03/24 08:47:41;;;;;;;7.92;5.67;;;;;;;1.06;65.21;99380.56;1816302;78;21122;-62
2021/03/24 08:50:19;;;;;;;7.80;4.95;;;;;;;1.20;65.33;99382.62;1816333;78;21598;-63
2021/03/24 08:53:58;;;;;;;7.85;6.22;;;;;;;1.36;64.52;99385.55;1811465;78;21258;-63
2021/03/24 08:56:50;;;;;;;7.50;5.67;;;;;;;1.47;64.18;99392.30;1807602;78;22142;-62
2021/03/24 08:59:42;;;;;;;7.20;5.55;;;;;;;1.42;64.03;99410.26;1808215;78;21267;-62
2021/03/24 09:02:47;;;;;;;10.90;8.40;;;;;;;1.49;64.17;99379.90;1816178;78;21102;-61
2021/03/24 09:05:41;;;;;;;16.32;9.78;;;;;;;1.54;63.01;99398.67;1816846;78;21122;-61
2021/03/24 09:08:23;;;;;;;11.12;7.60;;;;;;;1.59;63.60;99404.63;1814483;78;21095;-63
2021/03/24 09:11:05;;;;;;;9.38;6.65;;;;;;;1.64;63.62;99384.06;1807087;78;21374;-63
2021/03/24 09:13:45;;;;;;;7.50;5.30;;;;;;;1.81;63.86;99384.78;1808339;78;21113;-66
2021/03/24 09:16:41;;;;;;;9.18;6.55;;;;;;;1.91;62.15;99390.28;1774256;78;21035;-65
2021/03/24 09:19:33;;;;;;;8.18;6.15;;;;;;;1.92;62.19;99387.28;1786985;79;21115;-64
2021/03/24 09:22:43;;;;;;;13.35;9.15;;;;;;;1.87;63.06;99392.45;1816385;79;21128;-64
2021/03/24 09:25:40;;;;;;;8.20;6.70;;;;;;;1.98;63.52;99398.36;1812608;78;21202;-65
2021/03/24 09:28:48;;;;;;;9.70;6.90;;;;;;;2.11;62.17;99391.83;1815882;78;21287;-65
2021/03/24 09:31:36;;;;;;;8.50;6.50;;;;;;;2.18;63.54;99394.34;1811256;78;21145;-66
2021/03/24 09:34:20;;;;;;;7.22;6.20;;;;;;;2.30;61.93;99417.75;1804930;78;21043;-66
2021/03/24 09:37:10;;;;;;;8.80;5.80;;;;;;;2.28;61.67;99404.08;1812252;78;21121;-66
2021/03/24 09:39:56;;;;;;;11.68;8.03;;;;;;;2.30;61.94;99413.89;1811411;78;21331;-66
2021/03/24 09:42:37;;;;;;;13.32;7.15;;;;;;;2.40;62.14;99409.93;1815716;79;21055;-65
2021/03/24 09:45:18;;;;;;;14.78;7.55;;;;;;;2.55;62.10;99432.48;1811484;78;21058;-64
2021/03/24 09:48:08;;;;;;;10.58;7.67;;;;;;;2.61;62.16;99409.30;1810632;78;21158;-65
2021/03/24 09:50:45;;;;;;;9.50;7.22;;;;;;;2.68;61.98;99414.37;1810448;78;21233;-66
2021/03/24 09:53:18;;;;;;;11.05;7.67;;;;;;;2.79;61.52;99410.41;1809610;78;22108;-67
2021/03/24 09:56:00;;;;;;;9.80;7.45;;;;;;;2.81;60.84;99401.38;1812464;78;21512;-63
2021/03/24 09:58:45;;;;;;;10.28;8.13;;;;;;;2.86;61.21;99417.59;1809140;78;21251;-64
2021/03/24 10:01:22;;;;;;;9.63;7.50;;;;;;;2.89;60.72;99408.14;1810495;78;21138;-64
2021/03/24 10:04:10;;;;;;;9.00;7.90;;;;;;;2.91;61.18;99406.84;1813974;78;21527;-64
2021/03/24 10:07:03;;;;;;;11.15;8.35;;;;;;;2.93;60.72;99430.80;1815775;78;21365;-64
2021/03/24 10:10:04;;;;;;;9.93;7.87;;;;;;;2.91;61.06;99406.84;1811293;78;20960;-63
2021/03/24 10:13:02;;;;;;;12.43;8.18;;;;;;;2.95;61.20;99409.37;1811493;78;21129;-66
2021/03/24 10:15:40;;;;;;;13.38;8.55;;;;;;;3.06;61.92;99415.64;1780080;78;21194;-65
2021/03/24 10:18:22;;;;;;;10.30;8.53;;;;;;;3.26;61.02;99408.97;1813029;78;21135;-65
2021/03/24 10:21:23;;;;;;;11.83;8.48;;;;;;;3.42;60.79;99401.47;1806156;78;21303;-64
2021/03/24 10:23:58;;;;;;;11.70;8.20;;;;;;;3.59;59.59;99398.25;1809872;78;21162;-63
2021/03/24 10:26:33;;;;;;;12.40;8.93;;;;;;;3.67;58.77;99405.83;1811212;78;21495;-67
2021/03/24 10:29:08;;;;;;;10.40;8.48;;;;;;;3.64;58.67;99417.45;1781648;79;21144;-64
2021/03/24 10:31:41;;;;;;;11.43;8.73;;;;;;;3.62;59.29;99410.19;1813679;78;21583;-64
2021/03/24 10:34:17;;;;;;;11.20;8.20;;;;;;;3.63;58.66;99402.45;1814442;78;21536;-64
2021/03/24 10:37:04;;;;;;;11.08;9.23;;;;;;;3.64;58.61;99405.87;1812315;78;21079;-64
2021/03/24 10:39:40;;;;;;;13.08;8.83;;;;;;;3.59;57.95;99418.82;1815351;78;21571;-65
2021/03/24 10:42:42;;;;;;;10.90;8.40;;;;;;;3.56;58.17;99408.58;1811490;78;21169;-65
2021/03/24 10:45:30;;;;;;;12.25;8.60;;;;;;;3.52;58.01;99406.06;1813930;78;21587;-64
2021/03/24 10:48:18;;;;;;;12.30;8.18;;;;;;;3.51;57.72;99407.78;1815680;79;22377;-65
2021/03/24 10:51:08;;;;;;;12.25;9.08;;;;;;;3.58;58.46;99405.98;1760970;78;21614;-65
2021/03/24 10:53:37;;;;;;;13.90;8.38;;;;;;;3.68;58.85;99403.67;1816099;78;21066;-65
2021/03/24 10:56:31;;;;;;;12.73;8.63;;;;;;;3.72;58.23;99418.20;1811099;78;21531;-64
2021/03/24 10:59:37;;;;;;;11.35;8.68;;;;;;;3.76;57.50;99420.70;1815645;78;21233;-65
2021/03/24 11:02:19;;;;;;;10.72;7.70;;;;;;;3.83;57.33;99401.30;1815767;79;21391;-66
2021/03/24 11:04:56;;;;;;;11.18;8.68;;;;;;;3.87;56.46;99418.39;1802555;78;21127;-65
2021/03/24 11:07:39;;;;;;;12.60;9.45;;;;;;;3.87;57.29;99401.23;1815724;79;21067;-65
2021/03/24 11:10:40;;;;;;;10.53;8.93;;;;;;;3.96;56.71;99410.55;1812697;78;21071;-66
2021/03/24 11:13:23;;;;;;;12.53;8.23;;;;;;;4.06;56.71;99403.08;1815678;79;21138;-65
2021/03/24 11:16:24;;;;;;;9.18;8.23;;;;;;;4.17;55.67;99402.48;1812437;78;21360;-66
2021/03/24 11:18:51;;;;;;;10.65;8.45;;;;;;;4.21;55.14;99417.41;1805907;78;21134;-65
2021/03/24 11:21:45;;;;;;;11.07;8.60;;;;;;;4.16;55.64;99389.20;1815829;78;21558;-66
2021/03/24 11:24:42;;;;;;;12.28;8.43;;;;;;;4.20;55.00;99385.67;1815614;78;21039;-66
2021/03/24 11:27:17;;;;;;;10.75;8.05;;;;;;;4.26;54.18;99395.88;1815614;79;21634;-66
2021/03/24 11:30:05;;;;;;;11.50;8.83;;;;;;;4.28;54.60;99400.56;1814511;79;21687;-67
2021/03/24 11:32:52;;;;;;;10.17;8.57;;;;;;;4.32;54.61;99385.48;1814596;79;21143;-66
2021/03/24 11:35:31;;;;;;;10.30;8.55;;;;;;;4.37;54.60;99390.12;1811855;78;21099;-66
2021/03/24 11:38:41;;;;;;;11.12;8.55;;;;;;;4.37;53.88;99387.55;1815687;78;21159;-66
2021/03/24 11:41:20;;;;;;;15.72;9.73;;;;;;;4.31;53.94;99397.94;1806518;78;21566;-68
2021/03/24 11:44:01;;;;;;;12.90;10.78;;;;;;;4.25;54.33;99385.16;1812169;78;21377;-65
2021/03/24 11:46:44;;;;;;;13.28;11.83;;;;;;;4.24;54.32;99386.47;1788039;78;21146;-65
2021/03/24 11:49:47;;;;;;;12.13;9.83;;;;;;;4.23;54.75;99383.48;1806985;78;21126;-64
2021/03/24 11:53:00;;;;;;;11.83;9.55;;;;;;;4.24;54.95;99386.03;1815712;79;21159;-66
2021/03/24 11:55:42;;;;;;;10.40;8.98;;;;;;;4.28;54.81;99385.55;1815596;78;21135;-65
2021/03/24 11:58:27;;;;;;;10.58;8.78;;;;;;;4.28;53.88;99402.28;1761067;80;21380;-68
2021/03/24 12:01:01;;;;;;;9.25;8.20;;;;;;;4.19;53.79;99385.73;1727404;82;21084;-68
2021/03/24 12:03:47;;;;;;;11.85;8.75;;;;;;;4.12;53.67;99383.69;1727886;81;21234;-67
2021/03/24 12:06:37;;;;;;;12.75;8.98;;;;;;;4.10;54.15;99395.29;1743729;81;21170;-66
2021/03/24 12:09:11;;;;;;;14.40;7.90;;;;;;;4.10;54.93;99390.14;1815828;79;21090;-68
2021/03/24 12:11:40;;;;;;;8.95;7.60;;;;;;;4.07;54.86;99394.48;1811375;78;21214;-69
2021/03/24 12:14:24;;;;;;;12.33;8.45;;;;;;;4.07;55.44;99406.06;1815608;79;21091;-69
2021/03/24 12:17:01;;;;;;;9.10;8.18;;;;;;;4.06;55.93;99391.50;1810086;78;21102;-69
2021/03/24 12:19:42;;;;;;;11.33;8.03;;;;;;;4.09;55.33;99403.88;1807742;78;21063;-70
2021/03/24 12:22:27;;;;;;;10.43;7.80;;;;;;;4.10;55.39;99417.17;1794885;78;21133;-69
2021/03/24 12:25:17;;;;;;;13.00;10.08;;;;;;;4.06;55.34;99394.92;1813088;78;21357;-69
2021/03/24 12:27:49;;;;;;;16.70;9.15;;;;;;;4.07;56.42;99391.48;1815630;78;21067;-70
2021/03/24 12:30:47;;;;;;;9.88;8.33;;;;;;;4.07;55.86;99396.63;1788342;78;21252;-70
2021/03/24 12:33:22;;;;;;;9.45;7.30;;;;;;;4.03;54.33;99409.55;1765653;78;21050;-70
2021/03/24 12:36:18;;;;;;;8.73;7.83;;;;;;;3.89;54.64;99399.49;1815634;78;21107;-70
2021/03/24 12:38:54;;;;;;;9.65;7.92;;;;;;;3.83;56.54;99394.87;1815300;78;21467;-71
2021/03/24 12:41:39;;;;;;;9.28;7.92;;;;;;;3.82;57.05;99403.02;1806558;78;21141;-70
2021/03/24 12:44:27;;;;;;;9.00;7.45;;;;;;;3.87;57.54;99401.23;1816758;78;21115;-66
2021/03/24 12:47:02;;;;;;;14.25;8.35;;;;;;;3.96;55.90;99404.12;1789521;79;21571;-69
2021/03/24 12:49:34;;;;;;;10.50;7.87;;;;;;;4.03;56.18;99419.41;1812885;78;21597;-69
2021/03/24 12:52:26;;;;;;;7.95;7.15;;;;;;;4.07;56.24;99406.06;1807089;78;22260;-69
2021/03/24 12:54:53;;;;;;;8.60;7.45;;;;;;;4.05;55.72;99402.66;1802042;78;21063;-70
2021/03/24 12:57:51;;;;;;;10.80;8.00;;;;;;;3.97;56.36;99407.95;1814144;78;21231;-71
2021/03/24 13:01:06;;;;;;;12.30;8.65;;;;;;;3.95;56.82;99399.84;1753897;79;21182;-70